sensor_id;sensor_type;location;lat;lon;timestamp;P1;P2;P0
37709;PMS5003;60223;34.854;-92.408;2023-01-04T00:00:24;3;3;
37709;PMS5003;60223;34.854;-92.408;2023-01-04T00:02:50;3;3;
37709;PMS5003;60223;34.854;-92.408;2023-01-04T00:05:15;3;3;
37709;PMS5003;60223;34.854;-92.408;2023-01-04T00:07:41;4;4;
37709;PMS5003;60223;34.854;-92.408;2023-01-04T00:10:04;3;3;
37709;PMS5003;60223;34.854;-92.408;2023-01-04T00:12:34;5;5;
37709;PMS5003;60223;34.854;-92.408;2023-01-04T00:14:59;3;3;
37709;PMS5003;60223;34.854;-92.408;2023-01-04T00:17:24;4;4;
37709;PMS5003;60223;34.854;-92.408;2023-01-04T00:19:50;4;4;
37709;PMS5003;60223;34.854;-92.408;2023-01-04T00:22:14;3;3;
37709;PMS5003;60223;34.854;-92.408;2023-01-04T00:24:41;4;4;
37709;PMS5003;60223;34.854;-92.408;2023-01-04T00:27:07;4;3;
37709;PMS5003;60223;34.854;-92.408;2023-01-04T00:29:33;3;3;
37709;PMS5003;60223;34.854;-92.408;2023-01-04T00:31:58;1;1;
37709;PMS5003;60223;34.854;-92.408;2023-01-04T00:34:24;4;4;
37709;PMS5003;60223;34.854;-92.408;2023-01-04T00:36:48;4;3;
37709;PMS5003;60223;34.854;-92.408;2023-01-04T00:39:15;3;3;
37709;PMS5003;60223;34.854;-92.408;2023-01-04T00:41:42;2;2;
37709;PMS5003;60223;34.854;-92.408;2023-01-04T00:44:08;3;3;
37709;PMS5003;60223;34.854;-92.408;2023-01-04T00:46:33;4;3;
37709;PMS5003;60223;34.854;-92.408;2023-01-04T00:48:56;2;2;
37709;PMS5003;60223;34.854;-92.408;2023-01-04T00:51:24;3;3;
37709;PMS5003;60223;34.854;-92.408;2023-01-04T00:53:50;5;3;
37709;PMS5003;60223;34.854;-92.408;2023-01-04T00:56:15;4;4;
37709;PMS5003;60223;34.854;-92.408;2023-01-04T00:58:41;4;4;
37709;PMS5003;60223;34.854;-92.408;2023-01-04T01:01:07;3;3;
37709;PMS5003;60223;34.854;-92.408;2023-01-04T01:03:32;2;2;
37709;PMS5003;60223;34.854;-92.408;2023-01-04T01:06:00;3;3;
37709;PMS5003;60223;34.854;-92.408;2023-01-04T01:08:24;4;4;
37709;PMS5003;60223;34.854;-92.408;2023-01-04T01:10:50;5;4;
37709;PMS5003;60223;34.854;-92.408;2023-01-04T01:13:16;3;3;
37709;PMS5003;60223;34.854;-92.408;2023-01-04T01:15:41;3;3;
37709;PMS5003;60223;34.854;-92.408;2023-01-04T01:18:04;3;3;
37709;PMS5003;60223;34.854;-92.408;2023-01-04T01:20:33;3;3;
37709;PMS5003;60223;34.854;-92.408;2023-01-04T01:22:59;2;2;
37709;PMS5003;60223;34.854;-92.408;2023-01-04T01:25:24;5;4;
37709;PMS5003;60223;34.854;-92.408;2023-01-04T01:27:50;4;4;
37709;PMS5003;60223;34.854;-92.408;2023-01-04T01:30:16;3;3;
37709;PMS5003;60223;34.854;-92.408;2023-01-04T01:32:38;2;2;
37709;PMS5003;60223;34.854;-92.408;2023-01-04T01:35:07;3;3;
37709;PMS5003;60223;34.854;-92.408;2023-01-04T01:37:33;4;4;
37709;PMS5003;60223;34.854;-92.408;2023-01-04T01:39:59;4;4;
37709;PMS5003;60223;34.854;-92.408;2023-01-04T01:42:24;3;3;
37709;PMS5003;60223;34.854;-92.408;2023-01-04T01:44:53;3;3;
37709;PMS5003;60223;34.854;-92.408;2023-01-04T01:47:16;2;2;
37709;PMS5003;60223;34.854;-92.408;2023-01-04T01:49:41;5;4;
37709;PMS5003;60223;34.854;-92.408;2023-01-04T01:52:07;4;3;
37709;PMS5003;60223;34.854;-92.408;2023-01-04T01:54:34;5;5;
37709;PMS5003;60223;34.854;-92.408;2023-01-04T01:56:59;3;3;
37709;PMS5003;60223;34.854;-92.408;2023-01-04T01:59:24;3;3;
37709;PMS5003;60223;34.854;-92.408;2023-01-04T02:01:50;2;2;
37709;PMS5003;60223;34.854;-92.408;2023-01-04T02:04:13;2;2;
37709;PMS5003;60223;34.854;-92.408;2023-01-04T02:06:42;3;3;
37709;PMS5003;60223;34.854;-92.408;2023-01-04T02:09:07;4;4;
37709;PMS5003;60223;34.854;-92.408;2023-01-04T02:11:33;3;3;
37709;PMS5003;60223;34.854;-92.408;2023-01-04T02:13:59;3;3;
37709;PMS5003;60223;34.854;-92.408;2023-01-04T02:16:26;2;2;
37709;PMS5003;60223;34.854;-92.408;2023-01-04T02:18:51;3;3;
37709;PMS5003;60223;34.854;-92.408;2023-01-04T02:21:14;3;3;
37709;PMS5003;60223;34.854;-92.408;2023-01-04T02:23:51;3;3;
37709;PMS5003;60223;34.854;-92.408;2023-01-04T02:26:13;3;3;
37709;PMS5003;60223;34.854;-92.408;2023-01-04T02:28:36;3;3;
37709;PMS5003;60223;34.854;-92.408;2023-01-04T02:31:11;3;3;
37709;PMS5003;60223;34.854;-92.408;2023-01-04T02:33:27;2;2;
37709;PMS5003;60223;34.854;-92.408;2023-01-04T02:35:52;4;4;
37709;PMS5003;60223;34.854;-92.408;2023-01-04T02:38:18;3;3;
37709;PMS5003;60223;34.854;-92.408;2023-01-04T02:40:43;4;4;
37709;PMS5003;60223;34.854;-92.408;2023-01-04T02:43:06;3;3;
37709;PMS5003;60223;34.854;-92.408;2023-01-04T02:45:35;2;2;
37709;PMS5003;60223;34.854;-92.408;2023-01-04T02:48:00;4;4;
37709;PMS5003;60223;34.854;-92.408;2023-01-04T02:50:25;3;3;
37709;PMS5003;60223;34.854;-92.408;2023-01-04T02:52:50;4;3;
37709;PMS5003;60223;34.854;-92.408;2023-01-04T02:55:15;3;3;
37709;PMS5003;60223;34.854;-92.408;2023-01-04T02:57:42;3;3;
37709;PMS5003;60223;34.854;-92.408;2023-01-04T03:00:13;4;4;
37709;PMS5003;60223;34.854;-92.408;2023-01-04T03:02:36;6;6;
37709;PMS5003;60223;34.854;-92.408;2023-01-04T03:05:01;3;3;
37709;PMS5003;60223;34.854;-92.408;2023-01-04T03:07:25;5;5;
37709;PMS5003;60223;34.854;-92.408;2023-01-04T03:09:50;5;5;
37709;PMS5003;60223;34.854;-92.408;2023-01-04T03:12:17;3;3;
37709;PMS5003;60223;34.854;-92.408;2023-01-04T03:14:43;3;3;
37709;PMS5003;60223;34.854;-92.408;2023-01-04T03:17:08;3;3;
37709;PMS5003;60223;34.854;-92.408;2023-01-04T03:19:33;1;1;
37709;PMS5003;60223;34.854;-92.408;2023-01-04T03:21:58;3;3;
37709;PMS5003;60223;34.854;-92.408;2023-01-04T03:24:24;3;3;
37709;PMS5003;60223;34.854;-92.408;2023-01-04T03:26:50;3;3;
37709;PMS5003;60223;34.854;-92.408;2023-01-04T03:29:16;2;2;
37709;PMS5003;60223;34.854;-92.408;2023-01-04T03:31:42;3;3;
37709;PMS5003;60223;34.854;-92.408;2023-01-04T03:34:07;5;4;
37709;PMS5003;60223;34.854;-92.408;2023-01-04T03:36:38;2;2;
37709;PMS5003;60223;34.854;-92.408;2023-01-04T03:39:00;3;3;
37709;PMS5003;60223;34.854;-92.408;2023-01-04T03:41:25;2;2;
37709;PMS5003;60223;34.854;-92.408;2023-01-04T03:43:51;4;4;
37709;PMS5003;60223;34.854;-92.408;2023-01-04T03:46:18;3;3;
37709;PMS5003;60223;34.854;-92.408;2023-01-04T03:48:40;3;3;
37709;PMS5003;60223;34.854;-92.408;2023-01-04T03:51:09;2;2;
37709;PMS5003;60223;34.854;-92.408;2023-01-04T03:53:34;1;1;
37709;PMS5003;60223;34.854;-92.408;2023-01-04T03:55:58;2;2;
37709;PMS5003;60223;34.854;-92.408;2023-01-04T03:58:24;2;2;
37709;PMS5003;60223;34.854;-92.408;2023-01-04T04:00:50;2;2;
37709;PMS5003;60223;34.854;-92.408;2023-01-04T04:03:15;3;3;
37709;PMS5003;60223;34.854;-92.408;2023-01-04T04:05:42;3;3;
37709;PMS5003;60223;34.854;-92.408;2023-01-04T04:08:07;2;2;
37709;PMS5003;60223;34.854;-92.408;2023-01-04T04:10:30;4;3;
37709;PMS5003;60223;34.854;-92.408;2023-01-04T04:12:58;4;4;
37709;PMS5003;60223;34.854;-92.408;2023-01-04T04:15:24;4;4;
37709;PMS5003;60223;34.854;-92.408;2023-01-04T04:17:50;4;4;
37709;PMS5003;60223;34.854;-92.408;2023-01-04T04:20:15;5;5;
37709;PMS5003;60223;34.854;-92.408;2023-01-04T04:22:38;6;6;
37709;PMS5003;60223;34.854;-92.408;2023-01-04T04:25:07;6;6;
37709;PMS5003;60223;34.854;-92.408;2023-01-04T04:27:32;3;3;
37709;PMS5003;60223;34.854;-92.408;2023-01-04T04:29:58;6;6;
37709;PMS5003;60223;34.854;-92.408;2023-01-04T04:32:24;6;6;
37709;PMS5003;60223;34.854;-92.408;2023-01-04T04:34:49;5;5;
37709;PMS5003;60223;34.854;-92.408;2023-01-04T04:37:12;6;6;
37709;PMS5003;60223;34.854;-92.408;2023-01-04T04:39:41;8;7;
37709;PMS5003;60223;34.854;-92.408;2023-01-04T04:42:07;7;6;
37709;PMS5003;60223;34.854;-92.408;2023-01-04T04:44:33;9;9;
37709;PMS5003;60223;34.854;-92.408;2023-01-04T04:46:58;5;5;
37709;PMS5003;60223;34.854;-92.408;2023-01-04T04:49:21;7;7;
37709;PMS5003;60223;34.854;-92.408;2023-01-04T04:51:49;6;6;
37709;PMS5003;60223;34.854;-92.408;2023-01-04T04:54:16;5;5;
37709;PMS5003;60223;34.854;-92.408;2023-01-04T04:56:40;8;8;
37709;PMS5003;60223;34.854;-92.408;2023-01-04T04:59:06;12;10;
37709;PMS5003;60223;34.854;-92.408;2023-01-04T05:01:31;7;7;
37709;PMS5003;60223;34.854;-92.408;2023-01-04T05:03:54;8;8;
37709;PMS5003;60223;34.854;-92.408;2023-01-04T05:06:23;10;10;
37709;PMS5003;60223;34.854;-92.408;2023-01-04T05:08:49;10;10;
37709;PMS5003;60223;34.854;-92.408;2023-01-04T05:11:14;12;12;
37709;PMS5003;60223;34.854;-92.408;2023-01-04T05:13:40;12;12;
37709;PMS5003;60223;34.854;-92.408;2023-01-04T05:16:06;10;10;
37709;PMS5003;60223;34.854;-92.408;2023-01-04T05:18:29;7;7;
37709;PMS5003;60223;34.854;-92.408;2023-01-04T05:20:57;9;9;
37709;PMS5003;60223;34.854;-92.408;2023-01-04T05:23:22;6;6;
37709;PMS5003;60223;34.854;-92.408;2023-01-04T05:25:50;10;10;
37709;PMS5003;60223;34.854;-92.408;2023-01-04T05:28:14;10;9;
37709;PMS5003;60223;34.854;-92.408;2023-01-04T05:30:39;11;11;
37709;PMS5003;60223;34.854;-92.408;2023-01-04T05:33:05;13;10;
37709;PMS5003;60223;34.854;-92.408;2023-01-04T05:35:31;9;8;
37709;PMS5003;60223;34.854;-92.408;2023-01-04T05:37:54;11;8;
37709;PMS5003;60223;34.854;-92.408;2023-01-04T05:40:22;11;10;
37709;PMS5003;60223;34.854;-92.408;2023-01-04T05:42:47;7;7;
37709;PMS5003;60223;34.854;-92.408;2023-01-04T05:45:13;9;9;
37709;PMS5003;60223;34.854;-92.408;2023-01-04T05:47:39;10;9;
37709;PMS5003;60223;34.854;-92.408;2023-01-04T05:50:05;10;10;
37709;PMS5003;60223;34.854;-92.408;2023-01-04T05:52:30;10;9;
37709;PMS5003;60223;34.854;-92.408;2023-01-04T05:54:54;9;9;
37709;PMS5003;60223;34.854;-92.408;2023-01-04T05:57:19;8;8;
37709;PMS5003;60223;34.854;-92.408;2023-01-04T05:59:47;10;10;
37709;PMS5003;60223;34.854;-92.408;2023-01-04T06:02:14;11;9;
37709;PMS5003;60223;34.854;-92.408;2023-01-04T06:04:39;9;9;
37709;PMS5003;60223;34.854;-92.408;2023-01-04T06:07:04;11;11;
37709;PMS5003;60223;34.854;-92.408;2023-01-04T06:09:30;9;9;
37709;PMS5003;60223;34.854;-92.408;2023-01-04T06:11:56;8;8;
37709;PMS5003;60223;34.854;-92.408;2023-01-04T06:14:18;6;6;
37709;PMS5003;60223;34.854;-92.408;2023-01-04T06:16:47;10;8;
37709;PMS5003;60223;34.854;-92.408;2023-01-04T06:19:13;8;8;
37709;PMS5003;60223;34.854;-92.408;2023-01-04T06:21:39;8;8;
37709;PMS5003;60223;34.854;-92.408;2023-01-04T06:24:04;8;7;
37709;PMS5003;60223;34.854;-92.408;2023-01-04T06:26:30;7;7;
37709;PMS5003;60223;34.854;-92.408;2023-01-04T06:28:56;11;7;
37709;PMS5003;60223;34.854;-92.408;2023-01-04T06:31:18;7;7;
37709;PMS5003;60223;34.854;-92.408;2023-01-04T06:33:47;8;8;
37709;PMS5003;60223;34.854;-92.408;2023-01-04T06:36:13;9;8;
37709;PMS5003;60223;34.854;-92.408;2023-01-04T06:38:39;6;6;
37709;PMS5003;60223;34.854;-92.408;2023-01-04T06:41:04;6;6;
37709;PMS5003;60223;34.854;-92.408;2023-01-04T06:43:30;8;8;
37709;PMS5003;60223;34.854;-92.408;2023-01-04T06:45:56;7;7;
37709;PMS5003;60223;34.854;-92.408;2023-01-04T06:48:18;9;8;
37709;PMS5003;60223;34.854;-92.408;2023-01-04T06:50:47;7;7;
37709;PMS5003;60223;34.854;-92.408;2023-01-04T06:53:13;9;8;
37709;PMS5003;60223;34.854;-92.408;2023-01-04T06:55:39;6;6;
37709;PMS5003;60223;34.854;-92.408;2023-01-04T06:58:04;6;6;
37709;PMS5003;60223;34.854;-92.408;2023-01-04T07:00:27;8;7;
37709;PMS5003;60223;34.854;-92.408;2023-01-04T07:02:55;7;6;
37709;PMS5003;60223;34.854;-92.408;2023-01-04T07:05:21;7;7;
37709;PMS5003;60223;34.854;-92.408;2023-01-04T07:07:47;6;5;
37709;PMS5003;60223;34.854;-92.408;2023-01-04T07:10:13;8;7;
37709;PMS5003;60223;34.854;-92.408;2023-01-04T07:12:38;6;6;
37709;PMS5003;60223;34.854;-92.408;2023-01-04T07:15:01;7;7;
37709;PMS5003;60223;34.854;-92.408;2023-01-04T07:17:30;5;5;
37709;PMS5003;60223;34.854;-92.408;2023-01-04T07:19:56;6;6;
37709;PMS5003;60223;34.854;-92.408;2023-01-04T07:22:21;9;8;
37709;PMS5003;60223;34.854;-92.408;2023-01-04T07:24:47;10;8;
37709;PMS5003;60223;34.854;-92.408;2023-01-04T07:27:13;6;6;
37709;PMS5003;60223;34.854;-92.408;2023-01-04T07:29:38;7;4;
37709;PMS5003;60223;34.854;-92.408;2023-01-04T07:32:04;6;6;
37709;PMS5003;60223;34.854;-92.408;2023-01-04T07:34:30;6;6;
37709;PMS5003;60223;34.854;-92.408;2023-01-04T07:36:56;8;8;
37709;PMS5003;60223;34.854;-92.408;2023-01-04T07:39:19;6;5;
37709;PMS5003;60223;34.854;-92.408;2023-01-04T07:41:47;11;8;
37709;PMS5003;60223;34.854;-92.408;2023-01-04T07:44:13;7;7;
37709;PMS5003;60223;34.854;-92.408;2023-01-04T07:46:39;9;7;
37709;PMS5003;60223;34.854;-92.408;2023-01-04T07:49:04;7;6;
37709;PMS5003;60223;34.854;-92.408;2023-01-04T07:51:31;5;5;
37709;PMS5003;60223;34.854;-92.408;2023-01-04T07:53:55;6;6;
37709;PMS5003;60223;34.854;-92.408;2023-01-04T07:56:19;10;8;
37709;PMS5003;60223;34.854;-92.408;2023-01-04T07:58:47;7;6;
37709;PMS5003;60223;34.854;-92.408;2023-01-04T08:01:13;8;7;
37709;PMS5003;60223;34.854;-92.408;2023-01-04T08:03:39;7;7;
37709;PMS5003;60223;34.854;-92.408;2023-01-04T08:06:05;5;5;
37709;PMS5003;60223;34.854;-92.408;2023-01-04T08:08:30;5;5;
37709;PMS5003;60223;34.854;-92.408;2023-01-04T08:10:59;5;5;
37709;PMS5003;60223;34.854;-92.408;2023-01-04T08:13:22;6;6;
37709;PMS5003;60223;34.854;-92.408;2023-01-04T08:18:13;5;5;
37709;PMS5003;60223;34.854;-92.408;2023-01-04T08:20:38;6;4;
37709;PMS5003;60223;34.854;-92.408;2023-01-04T08:23:04;8;7;
37709;PMS5003;60223;34.854;-92.408;2023-01-04T08:25:30;5;5;
37709;PMS5003;60223;34.854;-92.408;2023-01-04T08:27:56;5;5;
37709;PMS5003;60223;34.854;-92.408;2023-01-04T08:30:22;9;8;
37709;PMS5003;60223;34.854;-92.408;2023-01-04T08:32:47;5;5;
37709;PMS5003;60223;34.854;-92.408;2023-01-04T08:35:13;7;6;
37709;PMS5003;60223;34.854;-92.408;2023-01-04T08:37:39;5;5;
37709;PMS5003;60223;34.854;-92.408;2023-01-04T08:40:05;6;6;
37709;PMS5003;60223;34.854;-92.408;2023-01-04T08:42:30;5;5;
37709;PMS5003;60223;34.854;-92.408;2023-01-04T08:44:54;5;5;
37709;PMS5003;60223;34.854;-92.408;2023-01-04T08:47:22;8;6;
37709;PMS5003;60223;34.854;-92.408;2023-01-04T08:49:48;5;5;
37709;PMS5003;60223;34.854;-92.408;2023-01-04T08:52:13;4;4;
37709;PMS5003;60223;34.854;-92.408;2023-01-04T08:54:39;7;7;
37709;PMS5003;60223;34.854;-92.408;2023-01-04T08:57:05;7;7;
37709;PMS5003;60223;34.854;-92.408;2023-01-04T08:59:31;5;5;
37709;PMS5003;60223;34.854;-92.408;2023-01-04T09:01:56;5;5;
37709;PMS5003;60223;34.854;-92.408;2023-01-04T09:04:22;7;7;
37709;PMS5003;60223;34.854;-92.408;2023-01-04T09:06:48;5;5;
37709;PMS5003;60223;34.854;-92.408;2023-01-04T09:09:12;6;6;
37709;PMS5003;60223;34.854;-92.408;2023-01-04T09:11:39;4;4;
37709;PMS5003;60223;34.854;-92.408;2023-01-04T09:14:05;5;5;
37709;PMS5003;60223;34.854;-92.408;2023-01-04T09:16:31;7;5;
37709;PMS5003;60223;34.854;-92.408;2023-01-04T09:18:56;6;6;
37709;PMS5003;60223;34.854;-92.408;2023-01-04T09:21:22;6;6;
37709;PMS5003;60223;34.854;-92.408;2023-01-04T09:23:48;4;4;
37709;PMS5003;60223;34.854;-92.408;2023-01-04T09:26:12;6;5;
37709;PMS5003;60223;34.854;-92.408;2023-01-04T09:28:40;5;5;
37709;PMS5003;60223;34.854;-92.408;2023-01-04T09:31:06;7;7;
37709;PMS5003;60223;34.854;-92.408;2023-01-04T09:33:31;4;4;
37709;PMS5003;60223;34.854;-92.408;2023-01-04T09:35:54;4;4;
37709;PMS5003;60223;34.854;-92.408;2023-01-04T09:38:23;5;3;
37709;PMS5003;60223;34.854;-92.408;2023-01-04T09:40:49;5;5;
37709;PMS5003;60223;34.854;-92.408;2023-01-04T09:43:15;5;5;
37709;PMS5003;60223;34.854;-92.408;2023-01-04T09:45:40;4;4;
37709;PMS5003;60223;34.854;-92.408;2023-01-04T09:48:08;4;4;
37709;PMS5003;60223;34.854;-92.408;2023-01-04T09:50:32;5;5;
37709;PMS5003;60223;34.854;-92.408;2023-01-04T09:52:56;3;3;
37709;PMS5003;60223;34.854;-92.408;2023-01-04T09:55:24;4;4;
37709;PMS5003;60223;34.854;-92.408;2023-01-04T09:57:50;5;5;
37709;PMS5003;60223;34.854;-92.408;2023-01-04T10:00:16;5;4;
37709;PMS5003;60223;34.854;-92.408;2023-01-04T10:02:41;5;5;
37709;PMS5003;60223;34.854;-92.408;2023-01-04T10:05:04;4;4;
37709;PMS5003;60223;34.854;-92.408;2023-01-04T10:07:32;6;5;
37709;PMS5003;60223;34.854;-92.408;2023-01-04T10:09:56;5;4;
37709;PMS5003;60223;34.854;-92.408;2023-01-04T10:12:28;5;5;
37709;PMS5003;60223;34.854;-92.408;2023-01-04T10:14:53;5;5;
37709;PMS5003;60223;34.854;-92.408;2023-01-04T10:17:19;5;5;
37709;PMS5003;60223;34.854;-92.408;2023-01-04T10:19:44;7;7;
37709;PMS5003;60223;34.854;-92.408;2023-01-04T10:22:07;5;5;
37709;PMS5003;60223;34.854;-92.408;2023-01-04T10:24:35;4;4;
37709;PMS5003;60223;34.854;-92.408;2023-01-04T10:26:58;6;5;
37709;PMS5003;60223;34.854;-92.408;2023-01-04T10:31:50;4;4;
37709;PMS5003;60223;34.854;-92.408;2023-01-04T10:34:15;6;6;
37709;PMS5003;60223;34.854;-92.408;2023-01-04T10:36:40;5;5;
37709;PMS5003;60223;34.854;-92.408;2023-01-04T10:39:17;5;5;
37709;PMS5003;60223;34.854;-92.408;2023-01-04T10:41:33;5;5;
37709;PMS5003;60223;34.854;-92.408;2023-01-04T10:43:58;4;4;
37709;PMS5003;60223;34.854;-92.408;2023-01-04T10:46:24;5;5;
37709;PMS5003;60223;34.854;-92.408;2023-01-04T10:48:49;6;6;
37709;PMS5003;60223;34.854;-92.408;2023-01-04T10:51:16;3;3;
37709;PMS5003;60223;34.854;-92.408;2023-01-04T10:53:41;5;5;
37709;PMS5003;60223;34.854;-92.408;2023-01-04T10:56:08;4;4;
37709;PMS5003;60223;34.854;-92.408;2023-01-04T10:58:33;6;5;
37709;PMS5003;60223;34.854;-92.408;2023-01-04T11:00:59;5;5;
37709;PMS5003;60223;34.854;-92.408;2023-01-04T11:03:23;7;7;
37709;PMS5003;60223;34.854;-92.408;2023-01-04T11:05:49;4;4;
37709;PMS5003;60223;34.854;-92.408;2023-01-04T11:08:16;4;4;
37709;PMS5003;60223;34.854;-92.408;2023-01-04T11:10:41;6;5;
37709;PMS5003;60223;34.854;-92.408;2023-01-04T11:13:07;7;4;
37709;PMS5003;60223;34.854;-92.408;2023-01-04T11:15:32;4;4;
37709;PMS5003;60223;34.854;-92.408;2023-01-04T11:17:59;3;3;
37709;PMS5003;60223;34.854;-92.408;2023-01-04T11:20:24;4;4;
37709;PMS5003;60223;34.854;-92.408;2023-01-04T11:22:51;5;5;
37709;PMS5003;60223;34.854;-92.408;2023-01-04T11:25:16;4;4;
37709;PMS5003;60223;34.854;-92.408;2023-01-04T11:27:43;5;4;
37709;PMS5003;60223;34.854;-92.408;2023-01-04T11:30:10;3;3;
37709;PMS5003;60223;34.854;-92.408;2023-01-04T11:32:33;5;5;
37709;PMS5003;60223;34.854;-92.408;2023-01-04T11:34:58;3;3;
37709;PMS5003;60223;34.854;-92.408;2023-01-04T11:37:26;5;5;
37709;PMS5003;60223;34.854;-92.408;2023-01-04T11:39:50;5;5;
37709;PMS5003;60223;34.854;-92.408;2023-01-04T11:42:19;4;4;
37709;PMS5003;60223;34.854;-92.408;2023-01-04T11:44:41;4;4;
37709;PMS5003;60223;34.854;-92.408;2023-01-04T11:47:10;6;6;
37709;PMS5003;60223;34.854;-92.408;2023-01-04T11:49:33;6;6;
37709;PMS5003;60223;34.854;-92.408;2023-01-04T11:51:59;4;4;
37709;PMS5003;60223;34.854;-92.408;2023-01-04T11:54:24;4;4;
37709;PMS5003;60223;34.854;-92.408;2023-01-04T11:56:56;4;4;
37709;PMS5003;60223;34.854;-92.408;2023-01-04T11:59:16;6;6;
37709;PMS5003;60223;34.854;-92.408;2023-01-04T12:01:42;4;4;
37709;PMS5003;60223;34.854;-92.408;2023-01-04T12:04:08;5;5;
37709;PMS5003;60223;34.854;-92.408;2023-01-04T12:06:35;5;5;
37709;PMS5003;60223;34.854;-92.408;2023-01-04T12:08:59;4;4;
37709;PMS5003;60223;34.854;-92.408;2023-01-04T12:11:26;5;5;
37709;PMS5003;60223;34.854;-92.408;2023-01-04T12:13:48;4;4;
37709;PMS5003;60223;34.854;-92.408;2023-01-04T12:16:18;6;4;
37709;PMS5003;60223;34.854;-92.408;2023-01-04T12:18:43;5;4;
37709;PMS5003;60223;34.854;-92.408;2023-01-04T12:21:08;3;3;
37709;PMS5003;60223;34.854;-92.408;2023-01-04T12:23:33;4;4;
37709;PMS5003;60223;34.854;-92.408;2023-01-04T12:25:59;4;4;
37709;PMS5003;60223;34.854;-92.408;2023-01-04T12:28:32;5;5;
37709;PMS5003;60223;34.854;-92.408;2023-01-04T12:30:48;5;5;
37709;PMS5003;60223;34.854;-92.408;2023-01-04T12:38:08;4;4;
37709;PMS5003;60223;34.854;-92.408;2023-01-04T12:45:25;5;5;
37709;PMS5003;60223;34.854;-92.408;2023-01-04T12:47:52;5;5;
37709;PMS5003;60223;34.854;-92.408;2023-01-04T12:50:18;3;3;
37709;PMS5003;60223;34.854;-92.408;2023-01-04T12:52:43;5;5;
37709;PMS5003;60223;34.854;-92.408;2023-01-04T12:57:34;4;4;
37709;PMS5003;60223;34.854;-92.408;2023-01-04T13:00:00;4;4;
37709;PMS5003;60223;34.854;-92.408;2023-01-04T13:02:26;4;4;
37709;PMS5003;60223;34.854;-92.408;2023-01-04T13:04:52;5;5;
37709;PMS5003;60223;34.854;-92.408;2023-01-04T13:07:19;4;4;
37709;PMS5003;60223;34.854;-92.408;2023-01-04T13:09:45;5;5;
37709;PMS5003;60223;34.854;-92.408;2023-01-04T13:12:11;4;4;
37709;PMS5003;60223;34.854;-92.408;2023-01-04T13:14:35;5;5;
37709;PMS5003;60223;34.854;-92.408;2023-01-04T13:19:26;6;6;
37709;PMS5003;60223;34.854;-92.408;2023-01-04T13:21:52;3;3;
37709;PMS5003;60223;34.854;-92.408;2023-01-04T13:24:20;4;4;
37709;PMS5003;60223;34.854;-92.408;2023-01-04T13:26:43;4;4;
37709;PMS5003;60223;34.854;-92.408;2023-01-04T13:29:12;4;4;
37709;PMS5003;60223;34.854;-92.408;2023-01-04T13:31:39;4;4;
37709;PMS5003;60223;34.854;-92.408;2023-01-04T13:34:01;3;3;
37709;PMS5003;60223;34.854;-92.408;2023-01-04T13:36:26;4;4;
37709;PMS5003;60223;34.854;-92.408;2023-01-04T13:38:52;4;4;
37709;PMS5003;60223;34.854;-92.408;2023-01-04T13:41:18;3;3;
37709;PMS5003;60223;34.854;-92.408;2023-01-04T13:43:47;4;4;
37709;PMS5003;60223;34.854;-92.408;2023-01-04T13:46:12;3;3;
37709;PMS5003;60223;34.854;-92.408;2023-01-04T13:48:34;4;4;
37709;PMS5003;60223;34.854;-92.408;2023-01-04T13:51:02;5;5;
37709;PMS5003;60223;34.854;-92.408;2023-01-04T13:53:27;4;3;
37709;PMS5003;60223;34.854;-92.408;2023-01-04T13:55:53;5;5;
37709;PMS5003;60223;34.854;-92.408;2023-01-04T13:58:18;4;4;
37709;PMS5003;60223;34.854;-92.408;2023-01-04T14:00:44;4;4;
37709;PMS5003;60223;34.854;-92.408;2023-01-04T14:03:12;4;4;
37709;PMS5003;60223;34.854;-92.408;2023-01-04T14:05:35;4;4;
37709;PMS5003;60223;34.854;-92.408;2023-01-04T14:08:01;5;5;
37709;PMS5003;60223;34.854;-92.408;2023-01-04T14:10:27;5;5;
37709;PMS5003;60223;34.854;-92.408;2023-01-04T14:12:52;4;4;
37709;PMS5003;60223;34.854;-92.408;2023-01-04T14:15:19;4;4;
37709;PMS5003;60223;34.854;-92.408;2023-01-04T14:17:46;5;5;
37709;PMS5003;60223;34.854;-92.408;2023-01-04T14:22:35;4;4;
37709;PMS5003;60223;34.854;-92.408;2023-01-04T14:27:28;5;5;
37709;PMS5003;60223;34.854;-92.408;2023-01-04T14:29:52;4;4;
37709;PMS5003;60223;34.854;-92.408;2023-01-04T14:32:18;6;5;
37709;PMS5003;60223;34.854;-92.408;2023-01-04T14:34:44;5;5;
37709;PMS5003;60223;34.854;-92.408;2023-01-04T14:37:09;4;4;
37709;PMS5003;60223;34.854;-92.408;2023-01-04T14:39:34;4;4;
37709;PMS5003;60223;34.854;-92.408;2023-01-04T14:42:02;4;4;
37709;PMS5003;60223;34.854;-92.408;2023-01-04T14:44:28;4;4;
37709;PMS5003;60223;34.854;-92.408;2023-01-04T14:46:53;5;4;
37709;PMS5003;60223;34.854;-92.408;2023-01-04T14:49:18;3;3;
37709;PMS5003;60223;34.854;-92.408;2023-01-04T14:51:43;3;3;
37709;PMS5003;60223;34.854;-92.408;2023-01-04T14:54:11;5;5;
37709;PMS5003;60223;34.854;-92.408;2023-01-04T14:56:36;4;4;
37709;PMS5003;60223;34.854;-92.408;2023-01-04T14:59:03;3;3;
37709;PMS5003;60223;34.854;-92.408;2023-01-04T15:01:27;3;3;
37709;PMS5003;60223;34.854;-92.408;2023-01-04T15:03:53;3;3;
37709;PMS5003;60223;34.854;-92.408;2023-01-04T15:06:19;4;4;
37709;PMS5003;60223;34.854;-92.408;2023-01-04T15:08:44;4;4;
37709;PMS5003;60223;34.854;-92.408;2023-01-04T15:11:08;4;4;
37709;PMS5003;60223;34.854;-92.408;2023-01-04T15:13:36;4;4;
37709;PMS5003;60223;34.854;-92.408;2023-01-04T15:16:02;3;3;
37709;PMS5003;60223;34.854;-92.408;2023-01-04T15:18:28;3;3;
37709;PMS5003;60223;34.854;-92.408;2023-01-04T15:20:53;4;4;
37709;PMS5003;60223;34.854;-92.408;2023-01-04T15:23:19;4;4;
37709;PMS5003;60223;34.854;-92.408;2023-01-04T15:25:45;5;4;
37709;PMS5003;60223;34.854;-92.408;2023-01-04T15:28:11;4;4;
37709;PMS5003;60223;34.854;-92.408;2023-01-04T15:30:39;3;3;
37709;PMS5003;60223;34.854;-92.408;2023-01-04T15:33:02;4;4;
37709;PMS5003;60223;34.854;-92.408;2023-01-04T15:35:28;4;4;
37709;PMS5003;60223;34.854;-92.408;2023-01-04T15:37:54;4;4;
37709;PMS5003;60223;34.854;-92.408;2023-01-04T15:40:19;3;3;
37709;PMS5003;60223;34.854;-92.408;2023-01-04T15:42:45;4;4;
37709;PMS5003;60223;34.854;-92.408;2023-01-04T15:45:11;6;5;
37709;PMS5003;60223;34.854;-92.408;2023-01-04T15:47:36;5;5;
37709;PMS5003;60223;34.854;-92.408;2023-01-04T15:50:03;6;5;
37709;PMS5003;60223;34.854;-92.408;2023-01-04T15:52:28;4;4;
37709;PMS5003;60223;34.854;-92.408;2023-01-04T15:54:54;5;5;
37709;PMS5003;60223;34.854;-92.408;2023-01-04T15:57:20;4;4;
37709;PMS5003;60223;34.854;-92.408;2023-01-04T15:59:45;3;3;
37709;PMS5003;60223;34.854;-92.408;2023-01-04T16:02:11;3;3;
37709;PMS5003;60223;34.854;-92.408;2023-01-04T16:04:37;4;3;
37709;PMS5003;60223;34.854;-92.408;2023-01-04T16:07:03;3;3;
37709;PMS5003;60223;34.854;-92.408;2023-01-04T16:09:28;3;3;
37709;PMS5003;60223;34.854;-92.408;2023-01-04T16:11:54;3;3;
37709;PMS5003;60223;34.854;-92.408;2023-01-04T16:14:20;4;4;
37709;PMS5003;60223;34.854;-92.408;2023-01-04T16:16:46;6;6;
37709;PMS5003;60223;34.854;-92.408;2023-01-04T16:19:11;4;4;
37709;PMS5003;60223;34.854;-92.408;2023-01-04T16:21:37;4;4;
37709;PMS5003;60223;34.854;-92.408;2023-01-04T16:24:03;3;3;
37709;PMS5003;60223;34.854;-92.408;2023-01-04T16:26:29;5;5;
37709;PMS5003;60223;34.854;-92.408;2023-01-04T16:28:55;6;4;